John_paul K — PBHY — position and weather

sailwx.info

Track history (hours):
 
Tides and Currents Weather Stations Pressure Air Temp Water Temp Dewpoint Dewpoint Depression Visibility Wind Speed Wind Dir Waves Ship Positions

John_paul K

Last reported at 2016-Jul-26 04:23 UTC. Time now 2016-Jul-28 12:23 UTC.
Position N 36°35' W 008°30'.

Length 90 m; draft 6 m.

Type: Cargo ship. MMSI: 245181000.

Date/timePositionNaut miles runAvg speedWind from/ knotsBaromVisibWave heightAir tempDewpointWater temp
2016-Jul-26 04:23N 36°35' W 008°30'8 8.8
2016-Jul-26 03:28N 36°34' W 008°40'9 8.6
2016-Jul-26 02:23N 36°33' W 008°52'7 8.6
2016-Jul-26 01:33N 36°32' W 009°00'9 8.6
2016-Jul-26 00:33N 36°33' W 009°11'8 8.4
2016-Jul-25 23:33N 36°38' W 009°20'9 8.6
2016-Jul-25 22:33N 36°44' W 009°28'8 8.5
2016-Jul-25 21:33N 36°51' W 009°33'9 9.1
2016-Jul-25 20:33N 37°00' W 009°36'9 9.0
2016-Jul-25 19:33N 37°09' W 009°38'9 9.0
2016-Jul-25 18:33N 37°18' W 009°40'9 8.8
2016-Jul-25 17:33N 37°26' W 009°43'9 9.2
2016-Jul-25 16:33N 37°35' W 009°45'9 8.8
2016-Jul-25 15:33N 37°44' W 009°48'9 9.2
2016-Jul-25 14:33N 37°53' W 009°51'9 9.2
2016-Jul-25 13:33N 38°02' W 009°53'10 9.6
2016-Jul-25 12:33N 38°11' W 009°56'10 9.7
2016-Jul-25 11:33N 38°21' W 009°59'10 9.8
2016-Jul-25 10:33N 38°30' W 010°02'11 9.3
2016-Jul-25 09:22N 38°41' W 010°05'8 9.5
2016-Jul-25 08:33N 38°49' W 010°06'1010.4
2016-Jul-25 07:33N 38°59' W 010°05'1110.8
2016-Jul-25 06:30N 39°10' W 010°05'  
2016-Jul-21 03:23N 54°13' W 005°23'7 8.6
2016-Jul-21 02:33N 54°20' W 005°21'8 8.4
2016-Jul-21 01:34N 54°28' W 005°19'9 8.5
2016-Jul-21 00:33N 54°36' W 005°19'9 9.3
2016-Jul-20 23:33N 54°46' W 005°17'10 9.9
2016-Jul-20 22:33N 54°56' W 005°16'12 0.2
2016-Jul-18 21:14N 55°08' W 005°15'7 7.8
2016-Jul-18 20:21N 55°01' W 005°15'6 8.0
2016-Jul-18 19:33N 54°54' W 005°16'8 7.9
2016-Jul-18 18:33N 54°47' W 005°18'8 7.7
2016-Jul-18 17:33N 54°39' W 005°18'7 7.4
2016-Jul-18 16:33N 54°31' W 005°20'8 7.7
2016-Jul-18 15:33N 54°24' W 005°21'8 7.7
2016-Jul-18 14:33N 54°16' W 005°22'8 7.7
2016-Jul-18 13:33N 54°09' W 005°24'144 7.8
2016-Jul-17 19:11N 51°55' W 006°51'5 8.5
2016-Jul-17 18:33N 51°53' W 006°60'9 8.5
2016-Jul-17 17:33N 51°51' W 007°13'8 8.4
2016-Jul-17 16:33N 51°49' W 007°26'8 8.4
2016-Jul-17 15:33N 51°47' W 007°39'8 8.5
2016-Jul-17 14:33N 51°45' W 007°53'9 9.3
2016-Jul-17 13:33N 51°45' W 008°08'8 7.7
2016-Jul-17 12:33N 51°51' W 008°16'7 6.8
2016-Jul-17 11:33N 51°54' W 008°25'  
Track history (hours):
 
Tides and Currents Weather Stations Pressure Air Temp Water Temp Dewpoint Dewpoint Depression Visibility Wind Speed Wind Dir Waves Ship Positions

John_paul K

Last reported at 2016-Jul-26 04:23 UTC. Time now 2016-Jul-28 12:23 UTC.
Position N 36°35' W 008°30'.

Length 90 m; draft 6 m.

Type: Cargo ship. MMSI: 245181000.

Date/timePositionNaut miles runAvg speedWind from/ knotsBaromVisibWave heightAir tempDewpointWater temp
2016-Jul-26 04:23N 36°35' W 008°30'8 8.8
2016-Jul-26 03:28N 36°34' W 008°40'9 8.6
2016-Jul-26 02:23N 36°33' W 008°52'7 8.6
2016-Jul-26 01:33N 36°32' W 009°00'9 8.6
2016-Jul-26 00:33N 36°33' W 009°11'8 8.4
2016-Jul-25 23:33N 36°38' W 009°20'9 8.6
2016-Jul-25 22:33N 36°44' W 009°28'8 8.5
2016-Jul-25 21:33N 36°51' W 009°33'9 9.1
2016-Jul-25 20:33N 37°00' W 009°36'9 9.0
2016-Jul-25 19:33N 37°09' W 009°38'9 9.0
2016-Jul-25 18:33N 37°18' W 009°40'9 8.8
2016-Jul-25 17:33N 37°26' W 009°43'9 9.2
2016-Jul-25 16:33N 37°35' W 009°45'9 8.8
2016-Jul-25 15:33N 37°44' W 009°48'9 9.2
2016-Jul-25 14:33N 37°53' W 009°51'9 9.2
2016-Jul-25 13:33N 38°02' W 009°53'10 9.6
2016-Jul-25 12:33N 38°11' W 009°56'10 9.7
2016-Jul-25 11:33N 38°21' W 009°59'10 9.8
2016-Jul-25 10:33N 38°30' W 010°02'11 9.3
2016-Jul-25 09:22N 38°41' W 010°05'8 9.5
2016-Jul-25 08:33N 38°49' W 010°06'1010.4
2016-Jul-25 07:33N 38°59' W 010°05'1110.8
2016-Jul-25 06:30N 39°10' W 010°05'  
2016-Jul-21 03:23N 54°13' W 005°23'7 8.6
2016-Jul-21 02:33N 54°20' W 005°21'8 8.4
2016-Jul-21 01:34N 54°28' W 005°19'9 8.5
2016-Jul-21 00:33N 54°36' W 005°19'9 9.3
2016-Jul-20 23:33N 54°46' W 005°17'10 9.9
2016-Jul-20 22:33N 54°56' W 005°16'12 0.2
2016-Jul-18 21:14N 55°08' W 005°15'7 7.8
2016-Jul-18 20:21N 55°01' W 005°15'6 8.0
2016-Jul-18 19:33N 54°54' W 005°16'8 7.9
2016-Jul-18 18:33N 54°47' W 005°18'8 7.7
2016-Jul-18 17:33N 54°39' W 005°18'7 7.4
2016-Jul-18 16:33N 54°31' W 005°20'8 7.7
2016-Jul-18 15:33N 54°24' W 005°21'8 7.7
2016-Jul-18 14:33N 54°16' W 005°22'8 7.7
2016-Jul-18 13:33N 54°09' W 005°24'144 7.8
2016-Jul-17 19:11N 51°55' W 006°51'5 8.5
2016-Jul-17 18:33N 51°53' W 006°60'9 8.5
2016-Jul-17 17:33N 51°51' W 007°13'8 8.4
2016-Jul-17 16:33N 51°49' W 007°26'8 8.4
2016-Jul-17 15:33N 51°47' W 007°39'8 8.5
2016-Jul-17 14:33N 51°45' W 007°53'9 9.3
2016-Jul-17 13:33N 51°45' W 008°08'8 7.7
2016-Jul-17 12:33N 51°51' W 008°16'7 6.8
2016-Jul-17 11:33N 51°54' W 008°25'  

Dump ship's entire track history